Weather History for Romeoville, IL

Change the Weather History Date:

Wednesday, October 9, 2013

  Actual Average Record
Temperature  
Mean Temperature 60 °F 55 °F  
Max Temperature 73 °F 66 °F 88 °F (2010)
Min Temperature 46 °F 45 °F 27 °F (2000)
Degree Days  
Heating Degree Days 5 10  
Month to date heating degree days 31 81  
Since 1 July heating degree days 103 180  
Cooling Degree Days 0 1  
Month to date cooling degree days 29 9  
Year to date cooling degree days 949 856  
Growing Degree Days 8 (Base 50)    
Moisture  
Dew Point 45 °F    
Average Humidity 65    
Maximum Humidity 91    
Minimum Humidity 29    
Precipitation  
Precipitation 0.00 in 0.11 in 0.45 in (2009)
Month to date precipitation 2.36 0.96  
Year to date precipitation 33.25 31.91  
Snow  
Snow 0.00 in 0.00 in - ()
Month to date snowfall T 0.0  
Since 1 July snowfall T 0.0  
Since 1 September snowfall T 0.0  
Snow Depth 0.00 in    
Sea Level Pressure  
Sea Level Pressure 30.19 in    
Wind  
Wind Speed 5 mph (SE)    
Max Wind Speed 9 mph    
Max Gust Speed 16 mph    
Visibility 10 miles    
Events      
T = Trace of Precipitation, MM = Missing Value Source: NWS Daily Summary

Daily Weather History Graph

Daily Weather History Graph

Search for Another Location

Airport:

Trip Planner

Search our weather history database for the weather conditions in past years. The results will help you decide how hot, cold, wet, or windy it might be!

Date:

Astronomy

Oct. 09, 2013 Rise Set
Actual Time 6:58 AM CDT 6:20 PM CDT
Civil Twilight 6:30 AM CDT 6:48 PM CDT
Nautical Twilight 5:58 AM CDT 7:20 PM CDT
Astronomical Twilight 5:25 AM CDT 7:52 PM CDT
Moon 11:56 AM CDT (10/9) 9:51 PM CDT (10/9)
Length of Visible Light 12h 17m
Length of Day
11h 22m
Waxing Crescent, 25% of the Moon is Illuminated
Oct 9
Waxing Crescent
Oct 11
First Quarter
Oct 18
Full
Oct 26
Last Quarter
Nov 3
New

Hourly Weather History & Observations

Time (CDT) Temp. Windchill Dew Point Humidity Pressure Visibility Wind Dir Wind Speed Gust Speed Precip Events Conditions
12:15 AM 52.9 °F - 46.4 °F 79% 30.17 in 10.0 mi SSE 5.8 mph - N/A   Clear
12:35 AM 52.7 °F - 46.4 °F 79% 30.17 in 10.0 mi South 5.8 mph - N/A   Clear
12:55 AM 51.3 °F - 46.4 °F 83% 30.17 in 10.0 mi SSE 5.8 mph - N/A   Clear
1:15 AM 50.5 °F - 46.0 °F 85% 30.18 in 10.0 mi SSE 5.8 mph - N/A   Clear
1:35 AM 50.9 °F - 46.0 °F 83% 30.18 in 10.0 mi SSE 4.6 mph - N/A   Clear
1:55 AM 50.0 °F - 45.5 °F 85% 30.18 in 10.0 mi SSE 5.8 mph - N/A   Clear
2:15 AM 49.6 °F - 45.5 °F 86% 30.18 in 10.0 mi SSE 5.8 mph - N/A   Clear
2:35 AM 50.2 °F - 45.7 °F 85% 30.19 in 10.0 mi South 8.1 mph - N/A   Clear
2:55 AM 50.0 °F - 45.7 °F 85% 30.19 in 10.0 mi SSE 4.6 mph - N/A   Clear
3:15 AM 50.0 °F - 45.3 °F 84% 30.19 in 10.0 mi South 4.6 mph - N/A   Clear
3:35 AM 50.0 °F - 44.8 °F 82% 30.19 in 10.0 mi South 4.6 mph - N/A   Clear
3:55 AM 49.5 °F - 45.0 °F 84% 30.21 in 10.0 mi SSE 3.5 mph - N/A   Clear
4:15 AM 49.5 °F - 45.0 °F 84% 30.21 in 10.0 mi SSE 3.5 mph - N/A   Clear
4:35 AM 46.9 °F - 43.2 °F 87% 30.21 in 10.0 mi SSE 5.8 mph - N/A   Clear
4:55 AM 46.9 °F - 43.9 °F 89% 30.21 in 10.0 mi SSE 6.9 mph - N/A   Clear
5:15 AM 47.3 °F - 43.7 °F 87% 30.21 in 10.0 mi SE 5.8 mph - N/A   Clear
5:35 AM 46.8 °F - 43.7 °F 89% 30.22 in 10.0 mi SE 4.6 mph - N/A   Clear
5:55 AM 46.0 °F 43.9 °F 42.8 °F 88% 30.23 in 10.0 mi SSE 4.6 mph - N/A   Clear
6:15 AM 46.8 °F - 43.9 °F 90% 30.23 in 10.0 mi SE 3.5 mph - N/A   Clear
6:35 AM 45.3 °F - 42.8 °F 91% 30.24 in 10.0 mi Calm Calm - N/A   Clear
6:55 AM 46.0 °F 43.9 °F 42.8 °F 88% 30.24 in 10.0 mi SE 4.6 mph - N/A   Clear
7:15 AM 47.8 °F - 43.2 °F 84% 30.24 in 10.0 mi ESE 3.5 mph - N/A   Clear
7:35 AM 47.5 °F - 43.2 °F 85% 30.25 in 10.0 mi Calm Calm - N/A   Clear
7:55 AM 49.3 °F - 45.0 °F 85% 30.25 in 10.0 mi Calm Calm - N/A   Clear
8:15 AM 52.0 °F - 45.9 °F 80% 30.26 in 10.0 mi Calm Calm - N/A   Clear
8:35 AM 53.2 °F - 45.7 °F 76% 30.26 in 10.0 mi SSE 3.5 mph - N/A   Clear
8:55 AM 54.7 °F - 46.2 °F 73% 30.26 in 10.0 mi SSE 3.5 mph - N/A   Clear
9:15 AM 56.8 °F - 45.5 °F 66% 30.26 in 10.0 mi SSE 5.8 mph - N/A   Clear
9:35 AM 58.5 °F - 45.7 °F 62% 30.26 in 10.0 mi South 4.6 mph - N/A   Clear
9:55 AM 60.1 °F - 45.3 °F 58% 30.26 in 10.0 mi SSE 4.6 mph - N/A   Clear
10:15 AM 61.7 °F - 45.0 °F 54% 30.26 in 10.0 mi SSE 4.6 mph - N/A   Clear
10:35 AM 63.5 °F - 45.3 °F 52% 30.25 in 10.0 mi SE 4.6 mph - N/A   Clear
10:55 AM 64.2 °F - 44.1 °F 48% 30.25 in 10.0 mi SSE 3.5 mph - N/A   Clear
11:15 AM 65.7 °F - 43.0 °F 44% 30.24 in 10.0 mi Calm Calm - N/A   Clear
11:35 AM 65.7 °F - 42.4 °F 43% 30.24 in 10.0 mi SE 4.6 mph - N/A   Clear
11:55 AM 65.8 °F - 42.3 °F 42% 30.24 in 10.0 mi Calm Calm - N/A   Clear
12:15 PM 67.3 °F - 43.0 °F 41% 30.23 in 10.0 mi ESE 5.8 mph - N/A   Clear
12:35 PM 68.0 °F - 43.2 °F 41% 30.22 in 10.0 mi East 8.1 mph - N/A   Clear
12:55 PM 68.7 °F - 40.6 °F 36% 30.21 in 10.0 mi SSE 5.8 mph - N/A   Clear
1:15 PM 69.4 °F - 39.9 °F 34% 30.20 in 10.0 mi East 4.6 mph - N/A   Clear
1:35 PM 70.3 °F - 41.0 °F 34% 30.19 in 10.0 mi SE 6.9 mph - N/A   Clear
1:55 PM 70.7 °F - 40.8 °F 34% 30.18 in 10.0 mi SE 5.8 mph - N/A   Clear
2:15 PM 70.9 °F - 38.7 °F 31% 30.18 in 10.0 mi East 8.1 mph - N/A   Clear
2:35 PM 71.4 °F - 39.7 °F 32% 30.17 in 10.0 mi SSE 4.6 mph - N/A   Clear
2:55 PM 71.4 °F - 39.2 °F 31% 30.17 in 10.0 mi SE 4.6 mph 16.1 mph N/A   Clear
3:15 PM 71.8 °F - 39.9 °F 31% 30.17 in 10.0 mi SE 6.9 mph - N/A   Clear
3:55 PM 72.0 °F - 39.4 °F 31% 30.16 in 10.0 mi SE 6.9 mph - N/A   Clear
4:15 PM 71.6 °F - 37.8 °F 29% 30.15 in 10.0 mi SE 5.8 mph - N/A   Clear
4:35 PM 71.6 °F - 39.4 °F 31% 30.15 in 10.0 mi SE 9.2 mph - N/A   Clear
4:55 PM 70.9 °F - 40.6 °F 33% 30.15 in 10.0 mi ESE 4.6 mph - N/A   Clear
5:15 PM 70.5 °F - 39.9 °F 33% 30.15 in 10.0 mi ESE 5.8 mph - N/A   Clear
5:35 PM 69.3 °F - 39.6 °F 34% 30.15 in 10.0 mi ESE 6.9 mph - N/A   Clear
5:55 PM 66.0 °F - 46.6 °F 49% 30.14 in 10.0 mi East 9.2 mph - N/A   Clear
6:15 PM 64.4 °F - 46.8 °F 53% 30.14 in 10.0 mi East 6.9 mph - N/A   Clear
6:55 PM 60.4 °F - 46.8 °F 61% 30.14 in 10.0 mi East 6.9 mph - N/A   Clear
7:15 PM 59.9 °F - 47.3 °F 63% 30.14 in 10.0 mi East 6.9 mph - N/A   Clear
7:35 PM 59.4 °F - 47.3 °F 64% 30.15 in 10.0 mi East 6.9 mph - N/A   Clear
7:55 PM 58.5 °F - 47.7 °F 67% 30.15 in 10.0 mi East 8.1 mph - N/A   Clear
8:15 PM 58.1 °F - 48.0 °F 69% 30.16 in 10.0 mi East 5.8 mph - N/A   Clear
8:35 PM 57.2 °F - 48.4 °F 72% 30.17 in 10.0 mi ENE 5.8 mph - N/A   Clear
8:55 PM 56.3 °F - 48.9 °F 76% 30.17 in 10.0 mi ENE 6.9 mph - N/A   Clear
9:15 PM 54.9 °F - 48.6 °F 79% 30.16 in 10.0 mi East 6.9 mph - N/A   Clear
9:35 PM 54.7 °F - 49.1 °F 81% 30.16 in 10.0 mi East 6.9 mph - N/A   Clear
9:55 PM 54.1 °F - 49.1 °F 83% 30.16 in 10.0 mi East 6.9 mph - N/A   Clear
10:15 PM 54.5 °F - 50.0 °F 85% 30.16 in 10.0 mi East 5.8 mph - N/A   Clear
10:35 PM 54.9 °F - 50.0 °F 84% 30.16 in 10.0 mi East 3.5 mph - N/A   Clear
10:55 PM 54.0 °F - 49.3 °F 84% 30.16 in 10.0 mi East 4.6 mph - N/A   Clear
11:15 PM 55.8 °F - 49.5 °F 79% 30.16 in 10.0 mi East 4.6 mph - N/A   Clear
11:55 PM 50.9 °F - 47.1 °F 87% 30.16 in 10.0 mi East 4.6 mph - N/A   Clear